sensor_id;sensor_type;location;lat;lon;timestamp;pressure;altitude;pressure_sealevel;temperature;humidity
60705;BME280;46545;38.014;-7.874;2024-03-02T00:01:22;98962.84;;;8.84;100.00
60705;BME280;46545;38.014;-7.874;2024-03-02T00:03:23;98959.59;;;8.82;100.00
60705;BME280;46545;38.014;-7.874;2024-03-02T00:05:25;98957.59;;;8.77;100.00
60705;BME280;46545;38.014;-7.874;2024-03-02T00:07:25;98959.69;;;8.75;100.00
60705;BME280;46545;38.014;-7.874;2024-03-02T00:09:26;98958.53;;;8.71;100.00
60705;BME280;46545;38.014;-7.874;2024-03-02T00:11:27;98945.19;;;8.71;100.00
60705;BME280;46545;38.014;-7.874;2024-03-02T00:13:28;98945.41;;;8.69;100.00
60705;BME280;46545;38.014;-7.874;2024-03-02T00:15:36;98939.13;;;8.64;100.00
60705;BME280;46545;38.014;-7.874;2024-03-02T00:17:40;98931.34;;;8.62;100.00
60705;BME280;46545;38.014;-7.874;2024-03-02T00:19:40;98939.13;;;8.64;100.00
60705;BME280;46545;38.014;-7.874;2024-03-02T00:21:41;98932.97;;;8.63;100.00
60705;BME280;46545;38.014;-7.874;2024-03-02T00:23:42;98938.91;;;8.65;100.00
60705;BME280;46545;38.014;-7.874;2024-03-02T00:25:53;98935.88;;;8.62;100.00
60705;BME280;46545;38.014;-7.874;2024-03-02T00:27:54;98925.66;;;8.59;100.00
60705;BME280;46545;38.014;-7.874;2024-03-02T00:29:55;98937.94;;;8.60;100.00
60705;BME280;46545;38.014;-7.874;2024-03-02T00:31:57;98934.69;;;8.58;100.00
60705;BME280;46545;38.014;-7.874;2024-03-02T00:34:01;98936.19;;;8.54;100.00
60705;BME280;46545;38.014;-7.874;2024-03-02T00:36:06;98938.19;;;8.46;100.00
60705;BME280;46545;38.014;-7.874;2024-03-02T00:38:07;98939.91;;;8.41;100.00
60705;BME280;46545;38.014;-7.874;2024-03-02T00:40:08;98945.25;;;8.41;100.00
60705;BME280;46545;38.014;-7.874;2024-03-02T00:42:11;98935.81;;;8.38;100.00
60705;BME280;46545;38.014;-7.874;2024-03-02T00:44:13;98933.84;;;8.34;100.00
60705;BME280;46545;38.014;-7.874;2024-03-02T00:46:18;98929.09;;;8.36;100.00
60705;BME280;46545;38.014;-7.874;2024-03-02T00:48:19;98930.00;;;8.29;100.00
60705;BME280;46545;38.014;-7.874;2024-03-02T00:50:19;98920.34;;;8.28;100.00
60705;BME280;46545;38.014;-7.874;2024-03-02T00:52:20;98923.28;;;8.27;100.00
60705;BME280;46545;38.014;-7.874;2024-03-02T00:54:23;98931.63;;;8.31;100.00
60705;BME280;46545;38.014;-7.874;2024-03-02T00:56:25;98920.72;;;8.32;100.00
60705;BME280;46545;38.014;-7.874;2024-03-02T00:58:26;98911.09;;;8.31;100.00
60705;BME280;46545;38.014;-7.874;2024-03-02T01:00:27;98916.19;;;8.33;100.00
60705;BME280;46545;38.014;-7.874;2024-03-02T01:02:28;98922.09;;;8.35;100.00
60705;BME280;46545;38.014;-7.874;2024-03-02T01:04:29;98920.28;;;8.35;100.00
60705;BME280;46545;38.014;-7.874;2024-03-02T01:06:30;98911.41;;;8.35;100.00
60705;BME280;46545;38.014;-7.874;2024-03-02T01:08:31;98900.75;;;8.35;100.00
60705;BME280;46545;38.014;-7.874;2024-03-02T01:10:31;98910.84;;;8.33;100.00
60705;BME280;46545;38.014;-7.874;2024-03-02T01:12:32;98904.69;;;8.32;100.00
60705;BME280;46545;38.014;-7.874;2024-03-02T01:14:33;98905.06;;;8.36;100.00
60705;BME280;46545;38.014;-7.874;2024-03-02T01:16:33;98915.25;;;8.39;100.00
60705;BME280;46545;38.014;-7.874;2024-03-02T01:18:34;98911.56;;;8.40;100.00
60705;BME280;46545;38.014;-7.874;2024-03-02T01:20:35;98899.84;;;8.41;100.00
60705;BME280;46545;38.014;-7.874;2024-03-02T01:22:35;98902.75;;;8.39;100.00
60705;BME280;46545;38.014;-7.874;2024-03-02T01:24:36;98904.16;;;8.42;100.00
60705;BME280;46545;38.014;-7.874;2024-03-02T01:26:37;98900.22;;;8.44;100.00
60705;BME280;46545;38.014;-7.874;2024-03-02T01:28:37;98905.09;;;8.47;100.00
60705;BME280;46545;38.014;-7.874;2024-03-02T01:30:38;98901.00;;;8.45;100.00
60705;BME280;46545;38.014;-7.874;2024-03-02T01:32:39;98900.00;;;8.46;100.00
60705;BME280;46545;38.014;-7.874;2024-03-02T01:34:39;98900.78;;;8.46;100.00
60705;BME280;46545;38.014;-7.874;2024-03-02T01:36:40;98896.25;;;8.47;100.00
60705;BME280;46545;38.014;-7.874;2024-03-02T01:38:40;98896.63;;;8.51;100.00
60705;BME280;46545;38.014;-7.874;2024-03-02T01:40:42;98893.13;;;8.50;100.00
60705;BME280;46545;38.014;-7.874;2024-03-02T01:42:44;98893.13;;;8.50;100.00
60705;BME280;46545;38.014;-7.874;2024-03-02T01:44:45;98890.47;;;8.50;100.00
60705;BME280;46545;38.014;-7.874;2024-03-02T01:46:46;98892.91;;;8.52;100.00
60705;BME280;46545;38.014;-7.874;2024-03-02T01:48:46;98891.06;;;8.52;100.00
60705;BME280;46545;38.014;-7.874;2024-03-02T01:50:48;98884.91;;;8.52;100.00
60705;BME280;46545;38.014;-7.874;2024-03-02T01:52:48;98883.03;;;8.52;100.00
60705;BME280;46545;38.014;-7.874;2024-03-02T01:54:49;98876.63;;;8.53;100.00
60705;BME280;46545;38.014;-7.874;2024-03-02T01:56:50;98876.41;;;8.55;100.00
60705;BME280;46545;38.014;-7.874;2024-03-02T01:58:51;98877.22;;;8.55;100.00
60705;BME280;46545;38.014;-7.874;2024-03-02T02:00:52;98870.00;;;8.56;100.00
60705;BME280;46545;38.014;-7.874;2024-03-02T02:02:52;98870.00;;;8.56;100.00
60705;BME280;46545;38.014;-7.874;2024-03-02T02:04:53;98860.75;;;8.58;100.00
60705;BME280;46545;38.014;-7.874;2024-03-02T02:06:54;98854.56;;;8.58;100.00
60705;BME280;46545;38.014;-7.874;2024-03-02T02:08:55;98852.16;;;8.56;100.00
60705;BME280;46545;38.014;-7.874;2024-03-02T02:10:56;98855.41;;;8.58;100.00
60705;BME280;46545;38.014;-7.874;2024-03-02T02:12:56;98854.34;;;8.59;100.00
60705;BME280;46545;38.014;-7.874;2024-03-02T02:14:57;98860.50;;;8.60;100.00
60705;BME280;46545;38.014;-7.874;2024-03-02T02:16:58;98851.66;;;8.59;100.00
60705;BME280;46545;38.014;-7.874;2024-03-02T02:18:59;98855.16;;;8.60;100.00
60705;BME280;46545;38.014;-7.874;2024-03-02T02:20:59;98847.72;;;8.62;100.00
60705;BME280;46545;38.014;-7.874;2024-03-02T02:23:04;98843.19;;;8.62;100.00
60705;BME280;46545;38.014;-7.874;2024-03-02T02:25:10;98845.03;;;8.62;100.00
60705;BME280;46545;38.014;-7.874;2024-03-02T02:27:10;98842.63;;;8.60;100.00
60705;BME280;46545;38.014;-7.874;2024-03-02T02:29:13;98843.19;;;8.62;100.00
60705;BME280;46545;38.014;-7.874;2024-03-02T02:31:14;98840.75;;;8.61;100.00
60705;BME280;46545;38.014;-7.874;2024-03-02T02:33:14;98839.97;;;8.60;100.00
60705;BME280;46545;38.014;-7.874;2024-03-02T02:35:15;98831.94;;;8.60;100.00
60705;BME280;46545;38.014;-7.874;2024-03-02T02:37:16;98828.78;;;8.63;100.00
60705;BME280;46545;38.014;-7.874;2024-03-02T02:39:18;98825.41;;;8.68;100.00
60705;BME280;46545;38.014;-7.874;2024-03-02T02:41:20;98827.84;;;8.69;100.00
60705;BME280;46545;38.014;-7.874;2024-03-02T02:43:21;98828.44;;;8.72;100.00
60705;BME280;46545;38.014;-7.874;2024-03-02T02:45:22;98830.38;;;8.76;100.00
60705;BME280;46545;38.014;-7.874;2024-03-02T02:47:22;98822.72;;;8.80;100.00
60705;BME280;46545;38.014;-7.874;2024-03-02T02:49:23;98817.97;;;8.82;100.00
60705;BME280;46545;38.014;-7.874;2024-03-02T02:51:24;98824.22;;;8.87;100.00
60705;BME280;46545;38.014;-7.874;2024-03-02T02:53:25;98822.13;;;8.89;100.00
60705;BME280;46545;38.014;-7.874;2024-03-02T02:55:26;98816.88;;;8.95;100.00
60705;BME280;46545;38.014;-7.874;2024-03-02T02:57:27;98812.69;;;8.99;100.00
60705;BME280;46545;38.014;-7.874;2024-03-02T02:59:30;98818.94;;;9.04;100.00
60705;BME280;46545;38.014;-7.874;2024-03-02T03:01:31;98806.16;;;9.06;100.00
60705;BME280;46545;38.014;-7.874;2024-03-02T03:03:31;98802.19;;;9.09;100.00
60705;BME280;46545;38.014;-7.874;2024-03-02T03:05:32;98800.94;;;9.12;100.00
60705;BME280;46545;38.014;-7.874;2024-03-02T03:07:33;98793.22;;;9.15;100.00
60705;BME280;46545;38.014;-7.874;2024-03-02T03:09:37;98792.50;;;9.20;100.00
60705;BME280;46545;38.014;-7.874;2024-03-02T03:11:39;98790.09;;;9.18;100.00
60705;BME280;46545;38.014;-7.874;2024-03-02T03:13:39;98790.41;;;9.22;100.00
60705;BME280;46545;38.014;-7.874;2024-03-02T03:15:40;98785.63;;;9.24;100.00
60705;BME280;46545;38.014;-7.874;2024-03-02T03:17:41;98778.44;;;9.24;100.00
60705;BME280;46545;38.014;-7.874;2024-03-02T03:19:41;98769.69;;;9.29;100.00
60705;BME280;46545;38.014;-7.874;2024-03-02T03:21:43;98768.91;;;9.28;100.00
60705;BME280;46545;38.014;-7.874;2024-03-02T03:23:44;98764.81;;;9.26;100.00
60705;BME280;46545;38.014;-7.874;2024-03-02T03:25:45;98765.38;;;9.28;100.00
60705;BME280;46545;38.014;-7.874;2024-03-02T03:27:46;98762.47;;;9.29;100.00
60705;BME280;46545;38.014;-7.874;2024-03-02T03:29:46;98753.66;;;9.29;100.00
60705;BME280;46545;38.014;-7.874;2024-03-02T03:31:47;98747.41;;;9.23;100.00
60705;BME280;46545;38.014;-7.874;2024-03-02T03:33:48;98746.09;;;9.26;100.00
60705;BME280;46545;38.014;-7.874;2024-03-02T03:35:48;98744.50;;;9.25;100.00
60705;BME280;46545;38.014;-7.874;2024-03-02T03:37:49;98735.97;;;9.28;100.00
60705;BME280;46545;38.014;-7.874;2024-03-02T03:39:49;98740.28;;;9.29;100.00
60705;BME280;46545;38.014;-7.874;2024-03-02T03:41:50;98735.97;;;9.28;100.00
60705;BME280;46545;38.014;-7.874;2024-03-02T03:43:51;98732.16;;;9.24;100.00
60705;BME280;46545;38.014;-7.874;2024-03-02T03:45:52;98729.75;;;9.22;100.00
60705;BME280;46545;38.014;-7.874;2024-03-02T03:47:53;98734.75;;;9.19;100.00
60705;BME280;46545;38.014;-7.874;2024-03-02T03:49:54;98730.94;;;9.15;100.00
60705;BME280;46545;38.014;-7.874;2024-03-02T03:51:55;98732.47;;;9.11;100.00
60705;BME280;46545;38.014;-7.874;2024-03-02T03:53:55;98722.84;;;9.09;100.00
60705;BME280;46545;38.014;-7.874;2024-03-02T03:55:56;98723.66;;;9.10;100.00
60705;BME280;46545;38.014;-7.874;2024-03-02T03:57:57;98719.31;;;9.09;100.00
60705;BME280;46545;38.014;-7.874;2024-03-02T03:59:57;98715.63;;;9.10;100.00
60705;BME280;46545;38.014;-7.874;2024-03-02T04:01:58;98721.53;;;9.12;100.00
60705;BME280;46545;38.014;-7.874;2024-03-02T04:03:59;98717.72;;;9.08;100.00
60705;BME280;46545;38.014;-7.874;2024-03-02T04:05:59;98712.59;;;9.06;100.00
60705;BME280;46545;38.014;-7.874;2024-03-02T04:08:00;98710.44;;;9.03;100.00
60705;BME280;46545;38.014;-7.874;2024-03-02T04:10:01;98710.09;;;9.00;100.00
60705;BME280;46545;38.014;-7.874;2024-03-02T04:12:02;98711.97;;;8.99;100.00
60705;BME280;46545;38.014;-7.874;2024-03-02T04:14:03;98709.50;;;8.98;100.00
60705;BME280;46545;38.014;-7.874;2024-03-02T04:16:06;98701.50;;;8.98;100.00
60705;BME280;46545;38.014;-7.874;2024-03-02T04:18:07;98707.31;;;8.95;100.00
60705;BME280;46545;38.014;-7.874;2024-03-02T04:20:08;98706.84;;;8.98;100.00
60705;BME280;46545;38.014;-7.874;2024-03-02T04:22:08;98701.50;;;8.98;100.00
60705;BME280;46545;38.014;-7.874;2024-03-02T04:24:09;98694.50;;;8.97;100.00
60705;BME280;46545;38.014;-7.874;2024-03-02T04:26:10;98687.22;;;8.92;100.00
60705;BME280;46545;38.014;-7.874;2024-03-02T04:28:10;98682.09;;;8.91;100.00
60705;BME280;46545;38.014;-7.874;2024-03-02T04:30:13;98681.53;;;8.88;100.00
60705;BME280;46545;38.014;-7.874;2024-03-02T04:32:13;98685.03;;;8.89;100.00
60705;BME280;46545;38.014;-7.874;2024-03-02T04:34:14;98679.34;;;8.85;100.00
60705;BME280;46545;38.014;-7.874;2024-03-02T04:36:14;98682.25;;;8.84;100.00
60705;BME280;46545;38.014;-7.874;2024-03-02T04:38:15;98687.25;;;8.80;100.00
60705;BME280;46545;38.014;-7.874;2024-03-02T04:40:16;98680.53;;;8.78;100.00
60705;BME280;46545;38.014;-7.874;2024-03-02T04:42:17;98680.78;;;8.76;100.00
60705;BME280;46545;38.014;-7.874;2024-03-02T04:44:17;98687.75;;;8.77;100.00
60705;BME280;46545;38.014;-7.874;2024-03-02T04:46:18;98684.03;;;8.78;100.00
60705;BME280;46545;38.014;-7.874;2024-03-02T04:48:18;98684.13;;;8.83;100.00
60705;BME280;46545;38.014;-7.874;2024-03-02T04:50:19;98686.31;;;8.86;100.00
60705;BME280;46545;38.014;-7.874;2024-03-02T04:52:20;98683.75;;;8.92;100.00
60705;BME280;46545;38.014;-7.874;2024-03-02T04:54:21;98682.22;;;8.96;100.00
60705;BME280;46545;38.014;-7.874;2024-03-02T04:56:21;98680.47;;;9.01;100.00
60705;BME280;46545;38.014;-7.874;2024-03-02T04:58:40;98684.97;;;9.01;100.00
60705;BME280;46545;38.014;-7.874;2024-03-02T05:00:41;98683.13;;;9.01;100.00
60705;BME280;46545;38.014;-7.874;2024-03-02T05:02:43;98683.13;;;9.01;100.00
60705;BME280;46545;38.014;-7.874;2024-03-02T05:04:43;98679.16;;;9.04;100.00
60705;BME280;46545;38.014;-7.874;2024-03-02T05:06:44;98676.72;;;9.02;100.00
60705;BME280;46545;38.014;-7.874;2024-03-02T05:08:51;98672.19;;;9.03;100.00
60705;BME280;46545;38.014;-7.874;2024-03-02T05:10:51;98672.44;;;9.01;100.00
60705;BME280;46545;38.014;-7.874;2024-03-02T05:12:52;98673.81;;;9.04;100.00
60705;BME280;46545;38.014;-7.874;2024-03-02T05:15:00;98667.09;;;9.01;100.00
60705;BME280;46545;38.014;-7.874;2024-03-02T05:17:00;98662.31;;;9.03;100.00
60705;BME280;46545;38.014;-7.874;2024-03-02T05:19:01;98666.94;;;9.08;100.00
60705;BME280;46545;38.014;-7.874;2024-03-02T05:21:03;98673.88;;;9.09;100.00
60705;BME280;46545;38.014;-7.874;2024-03-02T05:23:04;98674.16;;;9.07;100.00
60705;BME280;46545;38.014;-7.874;2024-03-02T05:25:05;98673.56;;;9.05;100.00
60705;BME280;46545;38.014;-7.874;2024-03-02T05:27:06;98664.72;;;9.05;100.00
60705;BME280;46545;38.014;-7.874;2024-03-02T05:29:07;98667.31;;;9.00;100.00
60705;BME280;46545;38.014;-7.874;2024-03-02T05:31:15;98664.66;;;9.00;100.00
60705;BME280;46545;38.014;-7.874;2024-03-02T05:33:16;98668.69;;;9.02;100.00
60705;BME280;46545;38.014;-7.874;2024-03-02T05:35:16;98668.69;;;9.02;100.00
60705;BME280;46545;38.014;-7.874;2024-03-02T05:37:17;98661.47;;;9.03;100.00
60705;BME280;46545;38.014;-7.874;2024-03-02T05:39:18;98666.84;;;9.03;100.00
60705;BME280;46545;38.014;-7.874;2024-03-02T05:41:19;98664.66;;;9.00;100.00
60705;BME280;46545;38.014;-7.874;2024-03-02T05:43:19;98663.00;;;8.99;100.00
60705;BME280;46545;38.014;-7.874;2024-03-02T05:45:20;98668.84;;;8.96;100.00
60705;BME280;46545;38.014;-7.874;2024-03-02T05:47:21;98660.72;;;8.91;100.00
60705;BME280;46545;38.014;-7.874;2024-03-02T05:49:22;98656.91;;;8.86;100.00
60705;BME280;46545;38.014;-7.874;2024-03-02T05:51:22;98653.66;;;8.84;100.00
60705;BME280;46545;38.014;-7.874;2024-03-02T05:53:23;98662.19;;;8.81;100.00
60705;BME280;46545;38.014;-7.874;2024-03-02T05:55:24;98660.53;;;8.80;100.00
60705;BME280;46545;38.014;-7.874;2024-03-02T05:57:24;98670.66;;;8.78;100.00
60705;BME280;46545;38.014;-7.874;2024-03-02T05:59:49;98664.75;;;8.76;100.00
60705;BME280;46545;38.014;-7.874;2024-03-02T06:01:50;98668.72;;;8.74;100.00
60705;BME280;46545;38.014;-7.874;2024-03-02T06:03:51;98665.97;;;8.68;100.00
60705;BME280;46545;38.014;-7.874;2024-03-02T06:05:52;98663.16;;;8.63;100.00
60705;BME280;46545;38.014;-7.874;2024-03-02T06:07:53;98670.03;;;8.59;100.00
60705;BME280;46545;38.014;-7.874;2024-03-02T06:09:53;98671.00;;;8.53;100.00
60705;BME280;46545;38.014;-7.874;2024-03-02T06:11:54;98668.47;;;8.46;100.00
60705;BME280;46545;38.014;-7.874;2024-03-02T06:13:55;98664.75;;;8.47;100.00
60705;BME280;46545;38.014;-7.874;2024-03-02T06:15:56;98666.84;;;8.45;100.00
60705;BME280;46545;38.014;-7.874;2024-03-02T06:17:56;98663.03;;;8.41;100.00
60705;BME280;46545;38.014;-7.874;2024-03-02T06:19:57;98666.94;;;8.39;100.00
60705;BME280;46545;38.014;-7.874;2024-03-02T06:21:57;98666.94;;;8.39;100.00
60705;BME280;46545;38.014;-7.874;2024-03-02T06:23:58;98677.63;;;8.39;100.00
60705;BME280;46545;38.014;-7.874;2024-03-02T06:25:59;98666.03;;;8.33;100.00
60705;BME280;46545;38.014;-7.874;2024-03-02T06:27:59;98663.47;;;8.26;100.00
60705;BME280;46545;38.014;-7.874;2024-03-02T06:30:00;98659.09;;;8.20;100.00
60705;BME280;46545;38.014;-7.874;2024-03-02T06:32:01;98657.94;;;8.16;100.00
60705;BME280;46545;38.014;-7.874;2024-03-02T06:34:01;98659.56;;;8.17;100.00
60705;BME280;46545;38.014;-7.874;2024-03-02T06:36:04;98653.44;;;8.17;100.00
60705;BME280;46545;38.014;-7.874;2024-03-02T06:38:04;98650.19;;;8.15;100.00
60705;BME280;46545;38.014;-7.874;2024-03-02T06:40:06;98651.22;;;8.14;100.00
60705;BME280;46545;38.014;-7.874;2024-03-02T06:42:10;98654.59;;;8.09;100.00
60705;BME280;46545;38.014;-7.874;2024-03-02T06:44:10;98655.03;;;8.06;100.00
60705;BME280;46545;38.014;-7.874;2024-03-02T06:46:11;98653.44;;;8.05;100.00
60705;BME280;46545;38.014;-7.874;2024-03-02T06:48:15;98646.13;;;8.00;100.00
60705;BME280;46545;38.014;-7.874;2024-03-02T06:50:19;98645.31;;;8.00;100.00
60705;BME280;46545;38.014;-7.874;2024-03-02T06:52:20;98653.09;;;8.01;100.00
60705;BME280;46545;38.014;-7.874;2024-03-02T06:54:21;98651.22;;;8.02;100.00
60705;BME280;46545;38.014;-7.874;2024-03-02T06:56:21;98654.72;;;8.02;100.00
60705;BME280;46545;38.014;-7.874;2024-03-02T06:58:22;98648.31;;;8.03;100.00
60705;BME280;46545;38.014;-7.874;2024-03-02T07:00:23;98645.44;;;8.05;100.00
60705;BME280;46545;38.014;-7.874;2024-03-02T07:02:25;98649.25;;;8.09;100.00
60705;BME280;46545;38.014;-7.874;2024-03-02T07:04:28;98648.19;;;8.10;100.00
60705;BME280;46545;38.014;-7.874;2024-03-02T07:06:28;98651.69;;;8.11;100.00
60705;BME280;46545;38.014;-7.874;2024-03-02T07:08:29;98652.84;;;8.15;100.00
60705;BME280;46545;38.014;-7.874;2024-03-02T07:10:30;98654.22;;;8.17;100.00
60705;BME280;46545;38.014;-7.874;2024-03-02T07:12:31;98645.88;;;8.14;100.00
60705;BME280;46545;38.014;-7.874;2024-03-02T07:14:31;98652.38;;;8.18;100.00
60705;BME280;46545;38.014;-7.874;2024-03-02T07:16:51;98647.72;;;8.25;100.00
60705;BME280;46545;38.014;-7.874;2024-03-02T07:18:51;98653.94;;;8.31;100.00
60705;BME280;46545;38.014;-7.874;2024-03-02T07:20:52;98651.97;;;8.38;100.00
60705;BME280;46545;38.014;-7.874;2024-03-02T07:22:53;98653.81;;;8.49;100.00
60705;BME280;46545;38.014;-7.874;2024-03-02T07:24:53;98655.06;;;8.58;100.00
60705;BME280;46545;38.014;-7.874;2024-03-02T07:26:54;98651.78;;;8.68;100.00
60705;BME280;46545;38.014;-7.874;2024-03-02T07:28:54;98646.72;;;8.83;100.00
60705;BME280;46545;38.014;-7.874;2024-03-02T07:33:00;98651.94;;;9.07;100.00
60705;BME280;46545;38.014;-7.874;2024-03-02T07:35:00;98656.59;;;9.28;100.00
60705;BME280;46545;38.014;-7.874;2024-03-02T07:37:02;98651.81;;;9.47;100.00
60705;BME280;46545;38.014;-7.874;2024-03-02T07:39:03;98650.75;;;9.65;100.00
60705;BME280;46545;38.014;-7.874;2024-03-02T07:41:03;98647.19;;;10.21;100.00
60705;BME280;46545;38.014;-7.874;2024-03-02T07:43:05;98656.22;;;11.08;100.00
60705;BME280;46545;38.014;-7.874;2024-03-02T07:45:06;98656.47;;;12.14;100.00
60705;BME280;46545;38.014;-7.874;2024-03-02T07:47:07;98654.34;;;13.15;100.00
60705;BME280;46545;38.014;-7.874;2024-03-02T07:49:08;98654.53;;;14.16;100.00
60705;BME280;46545;38.014;-7.874;2024-03-02T07:51:08;98658.25;;;14.95;100.00
60705;BME280;46545;38.014;-7.874;2024-03-02T07:53:09;98655.50;;;15.74;100.00
60705;BME280;46545;38.014;-7.874;2024-03-02T07:55:10;98651.28;;;16.59;95.75
60705;BME280;46545;38.014;-7.874;2024-03-02T07:57:11;98645.25;;;16.86;83.59
60705;BME280;46545;38.014;-7.874;2024-03-02T07:59:11;98648.59;;;17.68;78.74
60705;BME280;46545;38.014;-7.874;2024-03-02T08:01:12;98651.97;;;18.48;70.50
60705;BME280;46545;38.014;-7.874;2024-03-02T08:03:13;98659.75;;;19.27;62.34
60705;BME280;46545;38.014;-7.874;2024-03-02T08:05:15;98650.22;;;19.84;57.42
60705;BME280;46545;38.014;-7.874;2024-03-02T08:07:16;98652.69;;;20.34;55.38
60705;BME280;46545;38.014;-7.874;2024-03-02T08:09:16;98662.56;;;20.70;53.49
60705;BME280;46545;38.014;-7.874;2024-03-02T08:11:17;98656.50;;;21.43;52.88
60705;BME280;46545;38.014;-7.874;2024-03-02T08:13:18;98659.00;;;21.74;49.87
60705;BME280;46545;38.014;-7.874;2024-03-02T08:15:18;98665.06;;;22.35;48.53
60705;BME280;46545;38.014;-7.874;2024-03-02T08:17:19;98661.75;;;22.81;46.94
60705;BME280;46545;38.014;-7.874;2024-03-02T08:19:20;98671.63;;;22.94;46.84
60705;BME280;46545;38.014;-7.874;2024-03-02T08:21:20;98661.78;;;23.89;46.01
60705;BME280;46545;38.014;-7.874;2024-03-02T08:23:21;98658.50;;;24.33;43.25
60705;BME280;46545;38.014;-7.874;2024-03-02T08:25:22;98662.75;;;24.80;42.50
60705;BME280;46545;38.014;-7.874;2024-03-02T08:27:22;98651.00;;;25.07;41.69
60705;BME280;46545;38.014;-7.874;2024-03-02T08:29:23;98646.63;;;25.59;40.87
60705;BME280;46545;38.014;-7.874;2024-03-02T08:31:24;98661.81;;;25.56;39.26
60705;BME280;46545;38.014;-7.874;2024-03-02T08:33:25;98664.59;;;26.01;39.62
60705;BME280;46545;38.014;-7.874;2024-03-02T08:35:26;98653.47;;;25.37;39.92
60705;BME280;46545;38.014;-7.874;2024-03-02T08:37:26;98641.72;;;24.84;41.14
60705;BME280;46545;38.014;-7.874;2024-03-02T08:39:27;98658.50;;;24.82;41.50
60705;BME280;46545;38.014;-7.874;2024-03-02T08:41:28;98644.84;;;25.10;41.17
60705;BME280;46545;38.014;-7.874;2024-03-02T08:43:28;98655.28;;;24.92;41.46
60705;BME280;46545;38.014;-7.874;2024-03-02T08:45:29;98652.59;;;24.68;41.66
60705;BME280;46545;38.014;-7.874;2024-03-02T08:47:30;98670.06;;;22.63;44.72
60705;BME280;46545;38.014;-7.874;2024-03-02T08:49:30;98673.06;;;20.54;50.91
60705;BME280;46545;38.014;-7.874;2024-03-02T08:51:31;98668.38;;;18.43;61.53
60705;BME280;46545;38.014;-7.874;2024-03-02T08:53:32;98666.47;;;16.79;77.48
60705;BME280;46545;38.014;-7.874;2024-03-02T08:55:33;98670.03;;;15.78;89.33
60705;BME280;46545;38.014;-7.874;2024-03-02T08:57:33;98654.16;;;15.03;98.08
60705;BME280;46545;38.014;-7.874;2024-03-02T08:59:34;98657.69;;;14.43;100.00
60705;BME280;46545;38.014;-7.874;2024-03-02T09:01:35;98656.69;;;14.84;100.00
60705;BME280;46545;38.014;-7.874;2024-03-02T09:03:35;98662.59;;;15.94;100.00
60705;BME280;46545;38.014;-7.874;2024-03-02T09:05:37;98645.75;;;17.92;88.77
60705;BME280;46545;38.014;-7.874;2024-03-02T09:07:38;98647.75;;;20.05;66.42
60705;BME280;46545;38.014;-7.874;2024-03-02T09:09:41;98645.94;;;21.50;57.01
60705;BME280;46545;38.014;-7.874;2024-03-02T09:11:42;98632.25;;;22.74;51.87
60705;BME280;46545;38.014;-7.874;2024-03-02T09:13:42;98644.56;;;23.89;47.60
60705;BME280;46545;38.014;-7.874;2024-03-02T09:15:43;98639.13;;;24.38;45.91
60705;BME280;46545;38.014;-7.874;2024-03-02T09:17:44;98643.91;;;22.83;48.96
60705;BME280;46545;38.014;-7.874;2024-03-02T09:19:45;98644.03;;;22.66;50.02
60705;BME280;46545;38.014;-7.874;2024-03-02T09:21:46;98645.03;;;22.23;51.55
60705;BME280;46545;38.014;-7.874;2024-03-02T09:23:46;98635.19;;;22.01;52.19
60705;BME280;46545;38.014;-7.874;2024-03-02T09:25:48;98638.88;;;22.34;51.87
60705;BME280;46545;38.014;-7.874;2024-03-02T09:27:49;98645.72;;;22.11;53.11
60705;BME280;46545;38.014;-7.874;2024-03-02T09:29:50;98642.03;;;21.60;55.16
60705;BME280;46545;38.014;-7.874;2024-03-02T09:31:50;98637.88;;;21.19;56.77
60705;BME280;46545;38.014;-7.874;2024-03-02T09:33:51;98639.03;;;20.25;60.65
60705;BME280;46545;38.014;-7.874;2024-03-02T09:35:52;98636.09;;;19.50;66.84
60705;BME280;46545;38.014;-7.874;2024-03-02T09:37:52;98637.78;;;18.65;70.31
60705;BME280;46545;38.014;-7.874;2024-03-02T09:39:53;98638.63;;;18.24;76.10
60705;BME280;46545;38.014;-7.874;2024-03-02T09:41:54;98636.94;;;18.14;78.15
60705;BME280;46545;38.014;-7.874;2024-03-02T09:43:55;98633.09;;;18.01;79.91
60705;BME280;46545;38.014;-7.874;2024-03-02T09:45:56;98641.38;;;17.77;82.81
60705;BME280;46545;38.014;-7.874;2024-03-02T09:47:57;98636.75;;;17.64;83.49
60705;BME280;46545;38.014;-7.874;2024-03-02T09:49:57;98626.66;;;17.50;79.77
60705;BME280;46545;38.014;-7.874;2024-03-02T09:51:58;98634.50;;;17.19;85.99
60705;BME280;46545;38.014;-7.874;2024-03-02T09:54:00;98617.25;;;16.96;87.09
60705;BME280;46545;38.014;-7.874;2024-03-02T09:56:02;98622.00;;;16.66;89.15
60705;BME280;46545;38.014;-7.874;2024-03-02T09:58:03;98627.41;;;16.66;88.33
60705;BME280;46545;38.014;-7.874;2024-03-02T10:00:04;98627.66;;;16.46;89.06
60705;BME280;46545;38.014;-7.874;2024-03-02T10:02:07;98621.34;;;16.74;88.29
60705;BME280;46545;38.014;-7.874;2024-03-02T10:04:08;98622.53;;;16.87;88.64
60705;BME280;46545;38.014;-7.874;2024-03-02T10:06:25;98611.81;;;17.15;88.29
60705;BME280;46545;38.014;-7.874;2024-03-02T10:08:26;98605.84;;;17.32;84.14
60705;BME280;46545;38.014;-7.874;2024-03-02T10:10:37;98594.56;;;17.11;84.57
60705;BME280;46545;38.014;-7.874;2024-03-02T10:12:40;98606.44;;;16.96;82.22
60705;BME280;46545;38.014;-7.874;2024-03-02T10:14:41;98603.31;;;16.89;81.32
60705;BME280;46545;38.014;-7.874;2024-03-02T10:16:43;98598.47;;;16.86;83.75
60705;BME280;46545;38.014;-7.874;2024-03-02T10:18:44;98585.66;;;16.72;81.14
60705;BME280;46545;38.014;-7.874;2024-03-02T10:20:45;98585.94;;;16.90;84.40
60705;BME280;46545;38.014;-7.874;2024-03-02T10:22:45;98585.91;;;17.09;78.90
60705;BME280;46545;38.014;-7.874;2024-03-02T10:24:46;98580.13;;;17.15;80.05
60705;BME280;46545;38.014;-7.874;2024-03-02T10:26:51;98574.63;;;16.88;83.60
60705;BME280;46545;38.014;-7.874;2024-03-02T10:28:52;98589.66;;;16.56;83.17
60705;BME280;46545;38.014;-7.874;2024-03-02T10:30:59;98578.59;;;16.14;85.98
60705;BME280;46545;38.014;-7.874;2024-03-02T10:33:03;98568.25;;;15.68;91.42
60705;BME280;46545;38.014;-7.874;2024-03-02T10:35:06;98572.53;;;15.16;95.07
60705;BME280;46545;38.014;-7.874;2024-03-02T10:37:07;98571.13;;;14.95;100.00